Eagle San Antonio — 9V9330 — position and weather

sailwx.info

Track history (hours):
 
Tides and Currents Weather Stations Pressure Air Temp Water Temp Dewpoint Dewpoint Depression Visibility Wind Speed Wind Dir Waves Ship Positions

Eagle San Antonio

Last reported at 2015-Jun-27 20:33 UTC. Time now 2015-Jul-03 02:36 UTC.
Position N 27°14' W 014°11'.

Length 274 m; draft 9.3 m.

Type: Tanker. MMSI: 566453000.

Date/timePositionNaut miles runAvg speedWind from/ knotsBaromVisibWave heightAir tempDewpointWater temp
2015-Jun-27 20:33N 27°14' W 014°11'1413.4
2015-Jun-27 19:32N 27°26' W 014°03'1513.4
2015-Jun-27 18:24N 27°39' W 013°54'1113.6
2015-Jun-27 17:34N 27°49' W 013°47'1313.4
2015-Jun-27 16:33N 28°00' W 013°40'1313.4
2015-Jun-27 15:33N 28°12' W 013°31'1413.5
2015-Jun-27 14:32N 28°23' W 013°22'1413.4
2015-Jun-27 13:31N 28°35' W 013°14'1613.7
2015-Jun-27 12:21N 28°48' W 013°05'1313.5
2015-Jun-27 11:21N 29°00' W 012°57'15013.4
2015-Jun-27 00:09N 31°07' W 011°24'813.5
2015-Jun-26 23:33N 31°14' W 011°19'7113.5
2015-Jun-26 18:16N 32°14' W 010°34'2313.4
2015-Jun-26 16:33N 32°30' W 010°15'1313.2
2015-Jun-26 15:33N 32°39' W 010°03'1313.3
2015-Jun-26 14:32N 32°49' W 009°53'28313.3
2015-Jun-25 17:10N 35°58' W 005°36'712.4
2015-Jun-25 16:33N 35°60' W 005°27'6 6.0
2015-Jun-25 15:33N 36°05' W 005°24'0 0.1
2015-Jun-25 14:33N 36°05' W 005°24'0 0.1
2015-Jun-25 13:30N 36°05' W 005°24'0 0.0
2015-Jun-25 12:21N 36°05' W 005°24'0 0.0
2015-Jun-25 11:33N 36°05' W 005°24'0 0.2
2015-Jun-25 10:33N 36°05' W 005°24'0 0.2
2015-Jun-25 09:33N 36°05' W 005°24'0 0.1
2015-Jun-25 07:31N 36°05' W 005°24'7 7.4
2015-Jun-25 06:34N 36°04' W 005°16'12814.1
2015-Jun-24 21:32N 36°21' W 002°39'1515.1
2015-Jun-24 20:32N 36°23' W 002°21'1514.4
2015-Jun-24 19:29N 36°30' W 002°04'1815.0
2015-Jun-24 18:18N 36°40' W 001°46'3114.6
2015-Jun-24 16:13N 36°58' W 001°15'1014.4
2015-Jun-24 15:32N 37°04' W 001°05'1514.8
2015-Jun-24 14:31N 37°13' W 000°49'1414.9
2015-Jun-24 13:33N 37°21' W 000°35'1514.9
2015-Jun-24 12:33N 37°30' W 000°20'1515.0
2015-Jun-24 11:33N 37°39' W 000°05'10214.6
2015-Jun-24 04:32N 39°11' E 000°52'4314.5
2015-Jun-24 01:33N 39°37' E 001°37'1515.1
2015-Jun-24 00:33N 39°46' E 001°52'1515.2
2015-Jun-23 23:33N 39°55' E 002°09'1514.8
2015-Jun-23 22:33N 40°04' E 002°24'1514.7
2015-Jun-23 21:33N 40°11' E 002°40'1514.8
2015-Jun-23 20:33N 40°19' E 002°57'1514.8
2015-Jun-23 19:33N 40°28' E 003°12'715.0
2015-Jun-23 19:05N 40°32' E 003°20'31913.6
2015-Jun-22 19:33N 44°16' E 008°28'1 0.0
2015-Jun-21 07:19N 44°17' E 008°28'0 0.0
2015-Jun-21 06:33N 44°17' E 008°28'0 0.4
2015-Jun-21 05:33N 44°16' E 008°28'2 1.6
2015-Jun-21 04:33N 44°16' E 008°30'0 0.1
2015-Jun-21 03:21N 44°16' E 008°30'0 0.0
2015-Jun-21 01:30N 44°16' E 008°30'0 0.1
2015-Jun-21 00:33N 44°16' E 008°30'0 0.0
2015-Jun-20 23:33N 44°16' E 008°30'0 0.0
2015-Jun-20 22:30N 44°16' E 008°30'0 0.0
2015-Jun-20 21:30N 44°16' E 008°30'0 0.0
2015-Jun-20 20:33N 44°16' E 008°30'0 0.0
2015-Jun-20 19:33N 44°16' E 008°30'0 0.1
2015-Jun-20 18:18N 44°16' E 008°30'0 0.1
2015-Jun-20 16:30N 44°17' E 008°30'0 0.0
2015-Jun-20 15:33N 44°17' E 008°30'0 0.1
2015-Jun-20 14:33N 44°17' E 008°30'0 0.1
2015-Jun-20 13:30N 44°17' E 008°30'0 0.1
2015-Jun-20 12:30N 44°17' E 008°30'0 0.1
2015-Jun-20 11:30N 44°16' E 008°30'0 0.1
2015-Jun-20 10:33N 44°16' E 008°30'0 0.0
2015-Jun-20 09:30N 44°16' E 008°30'0 0.0
2015-Jun-20 08:33N 44°16' E 008°30'0 0.0
2015-Jun-20 07:30N 44°16' E 008°30'0 0.0
2015-Jun-20 06:30N 44°16' E 008°30'0 0.0
2015-Jun-20 05:30N 44°16' E 008°30'0 0.0
2015-Jun-20 04:30N 44°16' E 008°30'0 0.0
2015-Jun-20 03:33N 44°16' E 008°30'0 0.1
2015-Jun-20 02:30N 44°16' E 008°30'0 0.0
2015-Jun-20 01:30N 44°16' E 008°30'0 0.0
2015-Jun-20 00:33N 44°16' E 008°30'0 0.0
2015-Jun-19 23:15N 44°16' E 008°30'0 0.0
2015-Jun-19 22:24N 44°16' E 008°30'0 0.0
2015-Jun-19 21:30N 44°16' E 008°30'0 0.0
2015-Jun-19 20:12N 44°16' E 008°30'0 0.0
2015-Jun-19 19:24N 44°16' E 008°30'0 0.0
2015-Jun-19 18:33N 44°16' E 008°30'0 0.0
2015-Jun-19 17:30N 44°17' E 008°30'0 0.0
2015-Jun-19 16:33N 44°16' E 008°30'0 0.0
2015-Jun-19 15:30N 44°16' E 008°30'0 0.0
2015-Jun-19 14:30N 44°16' E 008°30'0 0.0
2015-Jun-19 13:30N 44°16' E 008°30'0 0.0
2015-Jun-19 12:33N 44°16' E 008°30'0 0.0
2015-Jun-19 11:30N 44°16' E 008°30'0 0.0
2015-Jun-19 10:33N 44°16' E 008°30'0 0.0
2015-Jun-19 09:30N 44°16' E 008°30'0 0.0
2015-Jun-19 08:30N 44°16' E 008°30'0 0.0
2015-Jun-19 07:27N 44°16' E 008°30'0 0.0
2015-Jun-19 06:09N 44°16' E 008°30'0 0.0
2015-Jun-19 05:30N 44°16' E 008°30'0 0.0
2015-Jun-19 04:30N 44°16' E 008°30'0 0.0
2015-Jun-19 03:30N 44°16' E 008°30'0 0.0
2015-Jun-19 02:33N 44°16' E 008°30'0 0.0
2015-Jun-19 01:27N 44°16' E 008°30'0 0.0
2015-Jun-19 00:33N 44°16' E 008°30'0 0.0
2015-Jun-18 23:30N 44°16' E 008°30'0 0.0
2015-Jun-18 22:33N 44°16' E 008°30'0 0.0
2015-Jun-18 21:30N 44°16' E 008°30'0 0.0
2015-Jun-18 20:33N 44°16' E 008°30'0 0.0
2015-Jun-18 19:30N 44°16' E 008°30'0 0.0
2015-Jun-18 18:30N 44°16' E 008°30'0 0.0
2015-Jun-18 17:33N 44°16' E 008°30'0 0.0
2015-Jun-18 16:30N 44°16' E 008°30'0 0.0
2015-Jun-18 15:33N 44°16' E 008°30'0 0.0
2015-Jun-18 14:30N 44°16' E 008°30'0 0.0
2015-Jun-18 13:21N 44°16' E 008°30'0 0.0
2015-Jun-18 12:03N 44°16' E 008°30'0 0.0
2015-Jun-18 11:30N 44°16' E 008°30'0 0.0
2015-Jun-18 10:33N 44°16' E 008°30'0 0.0
2015-Jun-18 09:24N 44°16' E 008°30'0 0.0
2015-Jun-18 08:33N 44°16' E 008°30'0 0.0
2015-Jun-18 07:33N 44°16' E 008°30'0 0.1
2015-Jun-18 06:33N 44°16' E 008°30'0 0.0
2015-Jun-18 05:33N 44°16' E 008°30'0 0.0
2015-Jun-18 04:33N 44°16' E 008°30'0 0.0
2015-Jun-18 03:33N 44°16' E 008°30'0 0.0
2015-Jun-18 02:33N 44°16' E 008°30'0 0.0
2015-Jun-18 01:30N 44°16' E 008°30'0 0.0
2015-Jun-18 00:33N 44°16' E 008°30'0 0.0
2015-Jun-17 23:30N 44°16' E 008°30'0 0.0
2015-Jun-17 22:30N 44°16' E 008°30'0 0.0
2015-Jun-17 21:30N 44°16' E 008°30'  
Track history (hours):
 
Tides and Currents Weather Stations Pressure Air Temp Water Temp Dewpoint Dewpoint Depression Visibility Wind Speed Wind Dir Waves Ship Positions

Eagle San Antonio

Last reported at 2015-Jun-27 20:33 UTC. Time now 2015-Jul-03 02:36 UTC.
Position N 27°14' W 014°11'.

Length 274 m; draft 9.3 m.

Type: Tanker. MMSI: 566453000.

Date/timePositionNaut miles runAvg speedWind from/ knotsBaromVisibWave heightAir tempDewpointWater temp
2015-Jun-27 20:33N 27°14' W 014°11'1413.4
2015-Jun-27 19:32N 27°26' W 014°03'1513.4
2015-Jun-27 18:24N 27°39' W 013°54'1113.6
2015-Jun-27 17:34N 27°49' W 013°47'1313.4
2015-Jun-27 16:33N 28°00' W 013°40'1313.4
2015-Jun-27 15:33N 28°12' W 013°31'1413.5
2015-Jun-27 14:32N 28°23' W 013°22'1413.4
2015-Jun-27 13:31N 28°35' W 013°14'1613.7
2015-Jun-27 12:21N 28°48' W 013°05'1313.5
2015-Jun-27 11:21N 29°00' W 012°57'15013.4
2015-Jun-27 00:09N 31°07' W 011°24'813.5
2015-Jun-26 23:33N 31°14' W 011°19'7113.5
2015-Jun-26 18:16N 32°14' W 010°34'2313.4
2015-Jun-26 16:33N 32°30' W 010°15'1313.2
2015-Jun-26 15:33N 32°39' W 010°03'1313.3
2015-Jun-26 14:32N 32°49' W 009°53'28313.3
2015-Jun-25 17:10N 35°58' W 005°36'712.4
2015-Jun-25 16:33N 35°60' W 005°27'6 6.0
2015-Jun-25 15:33N 36°05' W 005°24'0 0.1
2015-Jun-25 14:33N 36°05' W 005°24'0 0.1
2015-Jun-25 13:30N 36°05' W 005°24'0 0.0
2015-Jun-25 12:21N 36°05' W 005°24'0 0.0
2015-Jun-25 11:33N 36°05' W 005°24'0 0.2
2015-Jun-25 10:33N 36°05' W 005°24'0 0.2
2015-Jun-25 09:33N 36°05' W 005°24'0 0.1
2015-Jun-25 07:31N 36°05' W 005°24'7 7.4
2015-Jun-25 06:34N 36°04' W 005°16'12814.1
2015-Jun-24 21:32N 36°21' W 002°39'1515.1
2015-Jun-24 20:32N 36°23' W 002°21'1514.4
2015-Jun-24 19:29N 36°30' W 002°04'1815.0
2015-Jun-24 18:18N 36°40' W 001°46'3114.6
2015-Jun-24 16:13N 36°58' W 001°15'1014.4
2015-Jun-24 15:32N 37°04' W 001°05'1514.8
2015-Jun-24 14:31N 37°13' W 000°49'1414.9
2015-Jun-24 13:33N 37°21' W 000°35'1514.9
2015-Jun-24 12:33N 37°30' W 000°20'1515.0
2015-Jun-24 11:33N 37°39' W 000°05'10214.6
2015-Jun-24 04:32N 39°11' E 000°52'4314.5
2015-Jun-24 01:33N 39°37' E 001°37'1515.1
2015-Jun-24 00:33N 39°46' E 001°52'1515.2
2015-Jun-23 23:33N 39°55' E 002°09'1514.8
2015-Jun-23 22:33N 40°04' E 002°24'1514.7
2015-Jun-23 21:33N 40°11' E 002°40'1514.8
2015-Jun-23 20:33N 40°19' E 002°57'1514.8
2015-Jun-23 19:33N 40°28' E 003°12'715.0
2015-Jun-23 19:05N 40°32' E 003°20'31913.6
2015-Jun-22 19:33N 44°16' E 008°28'1 0.0
2015-Jun-21 07:19N 44°17' E 008°28'0 0.0
2015-Jun-21 06:33N 44°17' E 008°28'0 0.4
2015-Jun-21 05:33N 44°16' E 008°28'2 1.6
2015-Jun-21 04:33N 44°16' E 008°30'0 0.1
2015-Jun-21 03:21N 44°16' E 008°30'0 0.0
2015-Jun-21 01:30N 44°16' E 008°30'0 0.1
2015-Jun-21 00:33N 44°16' E 008°30'0 0.0
2015-Jun-20 23:33N 44°16' E 008°30'0 0.0
2015-Jun-20 22:30N 44°16' E 008°30'0 0.0
2015-Jun-20 21:30N 44°16' E 008°30'0 0.0
2015-Jun-20 20:33N 44°16' E 008°30'0 0.0
2015-Jun-20 19:33N 44°16' E 008°30'0 0.1
2015-Jun-20 18:18N 44°16' E 008°30'0 0.1
2015-Jun-20 16:30N 44°17' E 008°30'0 0.0
2015-Jun-20 15:33N 44°17' E 008°30'0 0.1
2015-Jun-20 14:33N 44°17' E 008°30'0 0.1
2015-Jun-20 13:30N 44°17' E 008°30'0 0.1
2015-Jun-20 12:30N 44°17' E 008°30'0 0.1
2015-Jun-20 11:30N 44°16' E 008°30'0 0.1
2015-Jun-20 10:33N 44°16' E 008°30'0 0.0
2015-Jun-20 09:30N 44°16' E 008°30'0 0.0
2015-Jun-20 08:33N 44°16' E 008°30'0 0.0
2015-Jun-20 07:30N 44°16' E 008°30'0 0.0
2015-Jun-20 06:30N 44°16' E 008°30'0 0.0
2015-Jun-20 05:30N 44°16' E 008°30'0 0.0
2015-Jun-20 04:30N 44°16' E 008°30'0 0.0
2015-Jun-20 03:33N 44°16' E 008°30'0 0.1
2015-Jun-20 02:30N 44°16' E 008°30'0 0.0
2015-Jun-20 01:30N 44°16' E 008°30'0 0.0
2015-Jun-20 00:33N 44°16' E 008°30'0 0.0
2015-Jun-19 23:15N 44°16' E 008°30'0 0.0
2015-Jun-19 22:24N 44°16' E 008°30'0 0.0
2015-Jun-19 21:30N 44°16' E 008°30'0 0.0
2015-Jun-19 20:12N 44°16' E 008°30'0 0.0
2015-Jun-19 19:24N 44°16' E 008°30'0 0.0
2015-Jun-19 18:33N 44°16' E 008°30'0 0.0
2015-Jun-19 17:30N 44°17' E 008°30'0 0.0
2015-Jun-19 16:33N 44°16' E 008°30'0 0.0
2015-Jun-19 15:30N 44°16' E 008°30'0 0.0
2015-Jun-19 14:30N 44°16' E 008°30'0 0.0
2015-Jun-19 13:30N 44°16' E 008°30'0 0.0
2015-Jun-19 12:33N 44°16' E 008°30'0 0.0
2015-Jun-19 11:30N 44°16' E 008°30'0 0.0
2015-Jun-19 10:33N 44°16' E 008°30'0 0.0
2015-Jun-19 09:30N 44°16' E 008°30'0 0.0
2015-Jun-19 08:30N 44°16' E 008°30'0 0.0
2015-Jun-19 07:27N 44°16' E 008°30'0 0.0
2015-Jun-19 06:09N 44°16' E 008°30'0 0.0
2015-Jun-19 05:30N 44°16' E 008°30'0 0.0
2015-Jun-19 04:30N 44°16' E 008°30'0 0.0
2015-Jun-19 03:30N 44°16' E 008°30'0 0.0
2015-Jun-19 02:33N 44°16' E 008°30'0 0.0
2015-Jun-19 01:27N 44°16' E 008°30'0 0.0
2015-Jun-19 00:33N 44°16' E 008°30'0 0.0
2015-Jun-18 23:30N 44°16' E 008°30'0 0.0
2015-Jun-18 22:33N 44°16' E 008°30'0 0.0
2015-Jun-18 21:30N 44°16' E 008°30'0 0.0
2015-Jun-18 20:33N 44°16' E 008°30'0 0.0
2015-Jun-18 19:30N 44°16' E 008°30'0 0.0
2015-Jun-18 18:30N 44°16' E 008°30'0 0.0
2015-Jun-18 17:33N 44°16' E 008°30'0 0.0
2015-Jun-18 16:30N 44°16' E 008°30'0 0.0
2015-Jun-18 15:33N 44°16' E 008°30'0 0.0
2015-Jun-18 14:30N 44°16' E 008°30'0 0.0
2015-Jun-18 13:21N 44°16' E 008°30'0 0.0
2015-Jun-18 12:03N 44°16' E 008°30'0 0.0
2015-Jun-18 11:30N 44°16' E 008°30'0 0.0
2015-Jun-18 10:33N 44°16' E 008°30'0 0.0
2015-Jun-18 09:24N 44°16' E 008°30'0 0.0
2015-Jun-18 08:33N 44°16' E 008°30'0 0.0
2015-Jun-18 07:33N 44°16' E 008°30'0 0.1
2015-Jun-18 06:33N 44°16' E 008°30'0 0.0
2015-Jun-18 05:33N 44°16' E 008°30'0 0.0
2015-Jun-18 04:33N 44°16' E 008°30'0 0.0
2015-Jun-18 03:33N 44°16' E 008°30'0 0.0
2015-Jun-18 02:33N 44°16' E 008°30'0 0.0
2015-Jun-18 01:30N 44°16' E 008°30'0 0.0
2015-Jun-18 00:33N 44°16' E 008°30'0 0.0
2015-Jun-17 23:30N 44°16' E 008°30'0 0.0
2015-Jun-17 22:30N 44°16' E 008°30'0 0.0
2015-Jun-17 21:30N 44°16' E 008°30'  

Dump ship's entire track history